Time;durP1;ratioP1;P1;durP2;ratioP2;P2;SDS_P1;SDS_P2;PMS_P1;PMS_P2;Temp;Humidity;BMP_temperature;BMP_pressure;BME280_temperature;BME280_humidity;BME280_pressure;Samples;Min_cycle;Max_cycle;Signal;HPM_P1;HPM_P2
2022/08/01 00:00:18;;;;;;;4.10;1.97;;;19.90;68.10;;;;;;5069097;28;20698;-84
2022/08/01 00:02:46;;;;;;;1.83;1.53;;;19.80;68.60;;;;;;5068683;28;20728;-83
2022/08/01 00:05:13;;;;;;;2.20;1.10;;;19.80;67.50;;;;;;5077575;28;21329;-83
2022/08/01 00:07:40;;;;;;;1.10;0.93;;;19.80;68.00;;;;;;5071454;28;20616;-83
2022/08/01 00:10:09;;;;;;;1.97;1.40;;;19.80;68.30;;;;;;5088895;28;20624;-83
2022/08/01 00:12:37;;;;;;;1.20;1.10;;;19.70;69.00;;;;;;5070302;28;20633;-83
2022/08/01 00:15:13;;;;;;;1.23;1.13;;;19.60;69.30;;;;;;5069145;28;20625;-83
2022/08/01 00:17:44;;;;;;;1.63;1.53;;;19.70;70.30;;;;;;5086137;28;21039;-84
2022/08/01 00:20:15;;;;;;;1.33;1.23;;;19.70;69.50;;;;;;5078840;28;20661;-83
2022/08/01 00:22:43;;;;;;;1.30;1.20;;;19.60;68.80;;;;;;5083355;28;20633;-83
2022/08/01 00:25:10;;;;;;;1.93;1.83;;;19.60;69.30;;;;;;5075776;28;20691;-83
2022/08/01 00:27:37;;;;;;;1.53;1.43;;;19.60;68.40;;;;;;5069660;28;21384;-83
2022/08/01 00:30:05;;;;;;;2.07;1.97;;;19.60;69.90;;;;;;5068312;28;21016;-83
2022/08/01 00:32:33;;;;;;;1.70;1.60;;;19.50;69.30;;;;;;5071529;28;20741;-84
2022/08/01 00:35:01;;;;;;;1.90;1.70;;;19.60;70.20;;;;;;5082845;28;20616;-84
2022/08/01 00:37:30;;;;;;;1.40;1.30;;;19.60;69.80;;;;;;5087552;28;20616;-83
2022/08/01 00:39:57;;;;;;;1.50;1.40;;;19.50;69.10;;;;;;5086428;28;20629;-84
2022/08/01 00:42:26;;;;;;;1.27;1.17;;;19.60;68.50;;;;;;5075089;28;21496;-83
2022/08/01 00:44:53;;;;;;;2.27;1.80;;;19.60;68.60;;;;;;5067612;28;20680;-84
2022/08/01 00:47:21;;;;;;;2.73;1.40;;;19.60;68.30;;;;;;5083148;28;20727;-83
2022/08/01 00:49:51;;;;;;;1.73;1.43;;;19.60;69.60;;;;;;5088014;28;21098;-84
2022/08/01 00:52:18;;;;;;;1.13;1.00;;;19.50;69.50;;;;;;5082947;28;20632;-84
2022/08/01 00:54:47;;;;;;;1.90;1.53;;;19.50;69.60;;;;;;5084274;28;20756;-84
2022/08/01 00:57:14;;;;;;;1.53;1.43;;;19.60;69.30;;;;;;5067856;28;20618;-83
2022/08/01 00:59:41;;;;;;;1.40;1.30;;;19.60;70.00;;;;;;5071796;28;20617;-84
2022/08/01 01:02:08;;;;;;;2.97;1.50;;;19.60;69.80;;;;;;5073182;28;20614;-83
2022/08/01 01:04:35;;;;;;;3.20;2.23;;;19.60;69.40;;;;;;5069851;28;20621;-83
2022/08/01 01:07:10;;;;;;;1.67;1.50;;;19.60;69.10;;;;;;5085753;28;20659;-84
2022/08/01 01:09:45;;;;;;;1.67;1.57;;;19.60;70.50;;;;;;5067711;28;20748;-84
2022/08/01 01:12:20;;;;;;;2.43;1.70;;;19.60;70.20;;;;;;5072988;28;21212;-84
2022/08/01 01:14:55;;;;;;;1.53;1.43;;;19.60;70.60;;;;;;5074532;28;20668;-84
2022/08/01 01:17:29;;;;;;;2.03;1.80;;;19.60;70.50;;;;;;5072457;28;20617;-84
2022/08/01 01:20:00;;;;;;;1.23;1.13;;;19.60;71.00;;;;;;5075695;28;20681;-83
2022/08/01 01:22:43;;;;;;;1.73;1.63;;;19.60;71.00;;;;;;5071377;28;20617;-83
2022/08/01 01:25:24;;;;;;;1.60;1.50;;;19.50;71.40;;;;;;5066610;28;20637;-83
2022/08/01 01:28:03;;;;;;;1.70;1.60;;;19.60;71.70;;;;;;5079440;28;20635;-84
2022/08/01 01:30:33;;;;;;;2.13;1.43;;;19.60;71.40;;;;;;5085939;28;21113;-84
2022/08/01 01:33:04;;;;;;;1.40;1.30;;;19.60;71.80;;;;;;5085180;28;20617;-84
2022/08/01 01:35:36;;;;;;;2.07;1.90;;;19.60;71.00;;;;;;5071716;28;20620;-83
2022/08/01 01:38:09;;;;;;;1.30;1.20;;;19.60;72.10;;;;;;5087348;28;21212;-84
2022/08/01 01:40:38;;;;;;;2.90;2.13;;;19.50;71.10;;;;;;5078035;28;21258;-84
2022/08/01 01:43:10;;;;;;;1.77;1.60;;;19.50;72.30;;;;;;5067273;28;20708;-83
2022/08/01 01:45:41;;;;;;;1.43;1.20;;;19.50;72.30;;;;;;5082065;28;20624;-84
2022/08/01 01:48:10;;;;;;;2.20;1.87;;;19.50;72.70;;;;;;5091406;28;20976;-83
2022/08/01 01:50:39;;;;;;;1.50;1.40;;;19.40;72.90;;;;;;5084358;28;20620;-84
2022/08/01 01:53:08;;;;;;;1.87;1.67;;;19.50;74.20;;;;;;5090701;28;20624;-83
2022/08/01 01:55:37;;;;;;;1.70;1.40;;;19.50;73.70;;;;;;5089186;28;20697;-84
2022/08/01 01:58:06;;;;;;;2.93;1.77;;;19.40;74.50;;;;;;5090618;28;20615;-83
2022/08/01 02:00:34;;;;;;;1.27;1.17;;;19.40;74.40;;;;;;5084204;28;20616;-83
2022/08/01 02:03:05;;;;;;;2.33;1.40;;;19.40;73.60;;;;;;5073362;28;21006;-83
2022/08/01 02:05:34;;;;;;;3.67;1.30;;;19.30;74.80;;;;;;5091250;28;20609;-82
2022/08/01 02:08:01;;;;;;;2.40;2.20;;;19.30;74.80;;;;;;5077044;28;21037;-82
2022/08/01 02:10:30;;;;;;;1.30;1.20;;;19.30;74.90;;;;;;5083284;28;21249;-82
2022/08/01 02:12:59;;;;;;;2.23;1.53;;;19.20;75.20;;;;;;5084550;28;20621;-82
2022/08/01 02:15:28;;;;;;;1.70;1.60;;;19.20;75.50;;;;;;5084638;28;21253;-83
2022/08/01 02:17:57;;;;;;;1.60;1.33;;;19.20;76.50;;;;;;5090998;28;20602;-83
2022/08/01 02:20:27;;;;;;;2.90;1.70;;;19.20;76.20;;;;;;5085594;28;20625;-82
2022/08/01 02:23:01;;;;;;;1.83;1.57;;;19.20;76.40;;;;;;5081855;28;20617;-83
2022/08/01 02:25:34;;;;;;;1.90;1.67;;;19.20;77.50;;;;;;5088713;28;21259;-82
2022/08/01 02:28:07;;;;;;;2.60;1.80;;;19.20;77.70;;;;;;5071520;28;20684;-83
2022/08/01 02:30:36;;;;;;;2.00;1.63;;;19.10;77.30;;;;;;5090620;28;21507;-82
2022/08/01 02:33:06;;;;;;;1.53;1.43;;;19.20;77.30;;;;;;5088320;28;20678;-83
2022/08/01 02:35:39;;;;;;;1.60;1.50;;;19.20;78.30;;;;;;5070481;28;20879;-83
2022/08/01 02:38:07;;;;;;;1.20;1.07;;;19.10;77.70;;;;;;5089935;28;20705;-82
2022/08/01 02:40:37;;;;;;;1.60;1.50;;;19.10;78.20;;;;;;5085911;28;20683;-83
2022/08/01 02:43:06;;;;;;;1.43;1.33;;;19.20;78.30;;;;;;5083178;28;20649;-83
2022/08/01 02:45:36;;;;;;;1.93;1.40;;;19.20;77.70;;;;;;5084337;28;21290;-83
2022/08/01 02:48:10;;;;;;;1.90;1.70;;;19.10;79.60;;;;;;5079265;28;20620;-82
2022/08/01 02:50:40;;;;;;;1.70;1.60;;;19.00;80.00;;;;;;5084606;28;20682;-82
2022/08/01 02:53:10;;;;;;;1.93;1.50;;;18.90;81.20;;;;;;5070591;28;20708;-83
2022/08/01 02:55:39;;;;;;;1.40;1.23;;;18.80;81.30;;;;;;5082084;28;20697;-82
2022/08/01 02:58:08;;;;;;;1.87;1.40;;;18.80;81.00;;;;;;5081949;28;20617;-83
2022/08/01 03:00:36;;;;;;;1.63;1.53;;;18.70;81.60;;;;;;5070387;28;20709;-82
2022/08/01 03:03:05;;;;;;;2.27;2.00;;;18.60;81.80;;;;;;5070066;28;20629;-82
2022/08/01 03:05:33;;;;;;;1.47;1.37;;;18.60;82.40;;;;;;5089203;28;20664;-82
2022/08/01 03:08:02;;;;;;;1.50;1.40;;;18.50;82.40;;;;;;5073383;28;20657;-83
2022/08/01 03:10:31;;;;;;;2.00;1.60;;;18.50;83.50;;;;;;5071070;28;21002;-82
2022/08/01 03:13:03;;;;;;;2.50;1.80;;;18.50;84.10;;;;;;5069809;28;20621;-83
2022/08/01 03:15:34;;;;;;;1.97;1.80;;;18.50;83.60;;;;;;5076286;28;21155;-83
2022/08/01 03:18:02;;;;;;;1.77;1.67;;;18.50;82.90;;;;;;5088261;28;20632;-83
2022/08/01 03:20:32;;;;;;;1.53;1.43;;;18.40;83.20;;;;;;5075895;28;21190;-83
2022/08/01 03:23:05;;;;;;;1.97;1.10;;;18.40;84.00;;;;;;5075657;28;20650;-83
2022/08/01 03:25:33;;;;;;;2.20;1.57;;;18.30;84.20;;;;;;5072310;28;21182;-83
2022/08/01 03:28:04;;;;;;;1.93;1.77;;;18.30;85.10;;;;;;5071948;28;20727;-83
2022/08/01 03:30:31;;;;;;;1.23;1.13;;;18.40;84.30;;;;;;5085971;28;20625;-83
2022/08/01 03:32:59;;;;;;;1.90;1.63;;;18.40;84.40;;;;;;5084978;28;20706;-83
2022/08/01 03:35:29;;;;;;;1.50;1.40;;;18.40;84.40;;;;;;5070512;28;20661;-83
2022/08/01 03:37:59;;;;;;;1.77;1.60;;;18.40;85.10;;;;;;5083420;28;20681;-83
2022/08/01 03:40:34;;;;;;;1.10;1.00;;;18.40;84.80;;;;;;5086956;28;20682;-83
2022/08/01 03:43:04;;;;;;;2.80;2.17;;;18.40;85.70;;;;;;5080413;28;20613;-83
2022/08/01 03:45:41;;;;;;;1.83;1.43;;;18.40;85.00;;;;;;5080980;28;20723;-83
2022/08/01 03:48:14;;;;;;;2.83;1.53;;;18.30;84.40;;;;;;5088752;28;20742;-83
2022/08/01 03:50:44;;;;;;;2.10;1.90;;;18.40;85.30;;;;;;5077634;28;20633;-83
2022/08/01 03:53:12;;;;;;;1.80;1.70;;;18.30;85.30;;;;;;5073755;28;20671;-83
2022/08/01 03:55:43;;;;;;;1.90;1.30;;;18.20;85.70;;;;;;5088484;28;20759;-82
2022/08/01 03:58:10;;;;;;;2.57;1.80;;;18.20;86.40;;;;;;5071903;28;20625;-82
2022/08/01 04:00:39;;;;;;;1.40;1.30;;;18.20;86.70;;;;;;5068131;28;20629;-83
2022/08/01 04:03:07;;;;;;;1.30;1.20;;;18.10;87.80;;;;;;5080141;28;20615;-82
2022/08/01 04:05:35;;;;;;;1.20;1.10;;;18.10;88.80;;;;;;5069299;28;20628;-83
2022/08/01 04:08:02;;;;;;;1.53;1.00;;;18.10;89.20;;;;;;5088308;28;20624;-82
2022/08/01 04:10:30;;;;;;;1.67;1.57;;;18.10;89.40;;;;;;5086684;28;20719;-82
2022/08/01 04:12:58;;;;;;;1.63;1.53;;;18.00;89.80;;;;;;5073092;28;20647;-82
2022/08/01 04:15:25;;;;;;;1.47;1.37;;;18.10;90.00;;;;;;5087618;28;20688;-83
2022/08/01 04:17:53;;;;;;;1.50;1.40;;;18.00;90.10;;;;;;5076353;28;21017;-82
2022/08/01 04:20:21;;;;;;;1.33;1.13;;;18.00;90.30;;;;;;5070729;28;20614;-82
2022/08/01 04:22:48;;;;;;;1.33;1.23;;;18.10;90.40;;;;;;5070127;28;20621;-84
2022/08/01 04:25:20;;;;;;;1.97;1.70;;;18.10;90.90;;;;;;5068440;28;21297;-83
2022/08/01 04:27:51;;;;;;;1.63;1.53;;;18.20;90.80;;;;;;5077351;28;20633;-83
2022/08/01 04:30:22;;;;;;;1.90;1.80;;;18.10;90.80;;;;;;5084516;28;20631;-83
2022/08/01 04:32:51;;;;;;;2.10;1.53;;;18.20;91.10;;;;;;5087804;28;20620;-82
2022/08/01 04:35:20;;;;;;;1.63;1.53;;;18.20;91.60;;;;;;5073821;28;20665;-82
2022/08/01 04:37:50;;;;;;;2.70;1.47;;;18.20;91.40;;;;;;5077769;28;20635;-82
2022/08/01 04:40:18;;;;;;;2.00;1.47;;;18.30;91.50;;;;;;5088469;28;20628;-83
2022/08/01 04:42:48;;;;;;;1.83;1.53;;;18.30;91.40;;;;;;5079196;28;20613;-82
2022/08/01 04:45:16;;;;;;;1.67;1.50;;;18.30;91.50;;;;;;5081959;28;20643;-82
2022/08/01 04:47:46;;;;;;;2.37;1.60;;;18.40;92.00;;;;;;5079165;28;20653;-82
2022/08/01 04:50:14;;;;;;;1.50;1.20;;;18.30;92.10;;;;;;5084203;28;20624;-82
2022/08/01 04:52:42;;;;;;;1.00;1.00;;;18.40;92.10;;;;;;5086938;28;20621;-83
2022/08/01 04:55:09;;;;;;;1.20;0.93;;;18.40;92.50;;;;;;5082733;28;20679;-82
2022/08/01 04:57:39;;;;;;;1.20;1.10;;;18.50;92.50;;;;;;5076226;28;21231;-82
2022/08/01 05:00:07;;;;;;;1.37;1.03;;;18.60;92.50;;;;;;5084567;28;21178;-82
2022/08/01 05:05:31;;;;;;;1.43;0.90;;;18.80;92.30;;;;;;5064148;28;20642;-82
2022/08/01 05:07:58;;;;;;;1.50;1.37;;;18.90;92.30;;;;;;5079804;28;20682;-84
2022/08/01 05:10:25;;;;;;;1.43;1.20;;;18.90;92.30;;;;;;5084304;28;21178;-83
2022/08/01 05:12:54;;;;;;;1.27;1.17;;;18.90;91.90;;;;;;5072626;28;20632;-83
2022/08/01 05:15:31;;;;;;;1.37;1.27;;;18.90;91.70;;;;;;5075030;28;20684;-85
2022/08/01 05:17:58;;;;;;;1.73;1.23;;;18.90;92.60;;;;;;5075765;28;20723;-84
2022/08/01 05:20:25;;;;;;;1.43;1.20;;;19.00;93.00;;;;;;5075076;28;20617;-83
2022/08/01 05:23:15;;;;;;;1.00;1.00;;;19.00;93.10;;;;;;5075786;28;20671;-86
2022/08/01 05:26:01;;;;;;;1.80;1.13;;;19.20;93.30;;;;;;5076852;28;20620;-86
2022/08/01 05:28:32;;;;;;;1.37;1.00;;;19.40;93.50;;;;;;5072988;28;20629;-85
2022/08/01 05:30:59;;;;;;;2.50;1.27;;;19.50;92.60;;;;;;5076337;28;20617;-84
2022/08/01 05:33:26;;;;;;;1.33;1.10;;;19.60;92.50;;;;;;5074076;28;20624;-84
2022/08/01 05:35:53;;;;;;;1.17;1.07;;;19.70;91.90;;;;;;5082510;28;20717;-83
2022/08/01 05:38:21;;;;;;;1.13;1.03;;;19.90;92.00;;;;;;5086834;28;20624;-80
2022/08/01 05:40:48;;;;;;;1.30;1.20;;;20.00;92.30;;;;;;5079633;28;21209;-80
2022/08/01 05:43:15;;;;;;;1.17;1.00;;;20.00;92.20;;;;;;5068526;28;21235;-81
2022/08/01 05:45:42;;;;;;;1.00;0.80;;;20.10;92.00;;;;;;5067145;28;20722;-80
2022/08/01 05:48:09;;;;;;;1.07;0.90;;;20.20;91.30;;;;;;5067223;28;20725;-81
2022/08/01 05:50:36;;;;;;;1.17;0.90;;;20.30;91.60;;;;;;5069534;28;21175;-80
2022/08/01 05:53:03;;;;;;;1.10;1.00;;;20.30;91.90;;;;;;5081957;28;20620;-80
2022/08/01 05:55:31;;;;;;;1.00;0.90;;;20.40;91.90;;;;;;5075405;28;21237;-80
2022/08/01 05:57:58;;;;;;;1.03;1.03;;;20.40;91.90;;;;;;5067312;28;20633;-80
2022/08/01 06:00:24;;;;;;;1.30;1.20;;;20.40;91.60;;;;;;5067995;28;20657;-80
2022/08/01 06:02:51;;;;;;;1.10;1.03;;;20.40;91.00;;;;;;5075768;28;20630;-80
2022/08/01 06:05:18;;;;;;;0.90;0.80;;;20.60;91.00;;;;;;5071628;28;20733;-80
2022/08/01 06:07:45;;;;;;;1.87;1.17;;;20.70;90.40;;;;;;5084384;28;21182;-80
2022/08/01 06:10:12;;;;;;;1.20;1.10;;;20.60;90.50;;;;;;5082716;28;20736;-82
2022/08/01 06:12:40;;;;;;;1.53;1.33;;;20.50;90.60;;;;;;5084727;28;20728;-82
2022/08/01 06:15:08;;;;;;;1.20;0.83;;;20.60;90.70;;;;;;5083022;28;20766;-82
2022/08/01 06:17:35;;;;;;;1.23;1.00;;;20.70;91.20;;;;;;5084050;28;20620;-82
2022/08/01 06:20:02;;;;;;;0.90;0.87;;;20.70;90.90;;;;;;5075191;28;20803;-82
2022/08/01 06:22:29;;;;;;;0.60;0.60;;;21.00;90.70;;;;;;5085210;28;21171;-82
2022/08/01 06:24:56;;;;;;;0.80;0.80;;;20.90;90.90;;;;;;5086398;28;20652;-82
2022/08/01 06:27:24;;;;;;;1.03;0.97;;;21.10;90.60;;;;;;5083404;28;20735;-82
2022/08/01 06:29:53;;;;;;;1.17;0.80;;;21.10;90.30;;;;;;5074314;28;20632;-83
2022/08/01 06:32:19;;;;;;;0.80;0.80;;;21.20;90.30;;;;;;5087470;28;20727;-83
2022/08/01 06:34:46;;;;;;;1.10;0.90;;;21.30;90.40;;;;;;5098157;28;20747;-83
2022/08/01 06:37:14;;;;;;;1.03;0.93;;;21.40;90.00;;;;;;5088208;28;20715;-82
2022/08/01 06:39:41;;;;;;;1.20;1.00;;;21.40;89.10;;;;;;5080057;28;20623;-83
2022/08/01 06:42:11;;;;;;;0.80;0.80;;;21.50;89.90;;;;;;5079366;28;20901;-83
2022/08/01 06:44:38;;;;;;;1.20;0.87;;;21.60;89.00;;;;;;5079267;28;20671;-82
2022/08/01 06:47:14;;;;;;;1.50;0.90;;;21.70;88.20;;;;;;5079033;28;21107;-83
2022/08/01 06:49:41;;;;;;;0.90;0.90;;;21.70;88.30;;;;;;5079759;28;20619;-83
2022/08/01 06:52:08;;;;;;;0.90;0.90;;;21.80;88.10;;;;;;5079337;28;20685;-82
2022/08/01 06:54:35;;;;;;;0.60;0.60;;;21.80;86.90;;;;;;5077208;28;20721;-82
2022/08/01 06:57:05;;;;;;;0.50;0.50;;;21.90;87.50;;;;;;5080729;28;20720;-82
2022/08/01 06:59:32;;;;;;;1.23;1.13;;;22.00;87.60;;;;;;5077040;28;20608;-82
2022/08/01 07:02:00;;;;;;;0.73;0.73;;;22.00;87.40;;;;;;5079264;28;20618;-82
2022/08/01 07:04:28;;;;;;;1.33;1.23;;;22.00;86.00;;;;;;5076451;28;20620;-82
2022/08/01 07:06:55;;;;;;;0.83;0.83;;;22.20;86.30;;;;;;5077989;28;21050;-82
2022/08/01 07:09:22;;;;;;;0.70;0.70;;;22.20;86.70;;;;;;5074060;28;21080;-83
2022/08/01 07:11:52;;;;;;;0.77;0.77;;;22.20;85.10;;;;;;5076035;28;20666;-82
2022/08/01 07:14:19;;;;;;;1.00;0.97;;;22.30;85.70;;;;;;5077747;28;20739;-82
2022/08/01 07:16:46;;;;;;;1.97;0.90;;;22.30;84.90;;;;;;5077521;28;21372;-82
2022/08/01 07:19:13;;;;;;;1.20;1.10;;;22.40;84.30;;;;;;5068702;28;20653;-82
2022/08/01 07:21:41;;;;;;;1.90;1.27;;;22.50;84.80;;;;;;5076023;28;20720;-82
2022/08/01 07:24:10;;;;;;;0.63;0.63;;;22.60;84.80;;;;;;5076153;28;20644;-82
2022/08/01 07:26:37;;;;;;;1.10;1.00;;;22.50;84.60;;;;;;5079925;28;20649;-82
2022/08/01 07:29:04;;;;;;;1.37;1.30;;;22.70;83.80;;;;;;5077253;28;20695;-82
2022/08/01 07:31:31;;;;;;;1.63;0.80;;;22.80;83.00;;;;;;5069817;28;20744;-82
2022/08/01 07:33:57;;;;;;;0.80;0.80;;;22.90;84.00;;;;;;5078015;28;20630;-82
2022/08/01 07:36:24;;;;;;;2.60;2.40;;;22.90;82.50;;;;;;5076110;28;21108;-82
2022/08/01 07:38:52;;;;;;;2.10;1.53;;;22.80;83.10;;;;;;5070281;28;20622;-82
2022/08/01 07:41:19;;;;;;;1.20;1.00;;;23.00;82.30;;;;;;5075171;28;20645;-82
2022/08/01 07:43:47;;;;;;;0.90;0.90;;;23.20;81.60;;;;;;5075043;28;21195;-82
2022/08/01 07:46:14;;;;;;;1.40;1.30;;;23.10;81.80;;;;;;5076820;28;20632;-82
2022/08/01 07:48:41;;;;;;;1.47;1.27;;;23.20;81.70;;;;;;5078048;28;20713;-82
2022/08/01 07:51:08;;;;;;;1.50;0.93;;;23.20;81.10;;;;;;5074530;28;20626;-82
2022/08/01 07:53:35;;;;;;;1.33;1.10;;;23.30;81.30;;;;;;5070179;28;20617;-82
2022/08/01 07:56:04;;;;;;;1.30;1.20;;;23.30;79.90;;;;;;5083673;28;20661;-82
2022/08/01 07:58:31;;;;;;;1.00;1.00;;;23.20;79.20;;;;;;5080510;28;20992;-82
2022/08/01 08:00:58;;;;;;;1.03;1.03;;;23.40;81.00;;;;;;5089372;28;20612;-82
2022/08/01 08:03:26;;;;;;;1.50;1.40;;;23.50;81.40;;;;;;5072644;28;20754;-82
2022/08/01 08:05:53;;;;;;;1.90;1.00;;;23.50;79.20;;;;;;5076591;28;21240;-81
2022/08/01 08:08:20;;;;;;;1.77;1.43;;;23.50;79.60;;;;;;5078204;28;20689;-82
2022/08/01 08:10:47;;;;;;;1.30;1.20;;;23.70;79.40;;;;;;5076186;28;20661;-82
2022/08/01 08:13:15;;;;;;;1.30;1.20;;;24.00;80.20;;;;;;5083394;28;20664;-83
2022/08/01 08:15:48;;;;;;;1.30;1.20;;;24.00;79.20;;;;;;5080298;28;21082;-83
2022/08/01 08:18:16;;;;;;;1.37;1.27;;;24.00;77.60;;;;;;5078758;28;20626;-82
2022/08/01 08:20:43;;;;;;;1.50;1.40;;;24.00;78.90;;;;;;5077900;28;21088;-82
2022/08/01 08:25:50;;;;;;;1.30;1.20;;;23.70;79.00;;;;;;5086283;28;20628;-82
2022/08/01 08:28:18;;;;;;;1.40;1.30;;;23.80;78.50;;;;;;5081993;28;21176;-82
2022/08/01 08:30:45;;;;;;;1.30;1.20;;;24.10;78.40;;;;;;5079181;28;20625;-82
2022/08/01 08:33:12;;;;;;;1.30;1.07;;;24.40;78.50;;;;;;5085420;28;20646;-82
2022/08/01 08:35:41;;;;;;;1.77;1.63;;;24.40;77.50;;;;;;5074373;28;20657;-82
2022/08/01 08:38:07;;;;;;;1.63;1.53;;;24.40;78.60;;;;;;5067982;28;20705;-83
2022/08/01 08:40:37;;;;;;;2.00;1.50;;;24.00;76.90;;;;;;5070443;28;20625;-82
2022/08/01 08:43:06;;;;;;;1.60;1.50;;;23.90;77.80;;;;;;5082941;28;20720;-83
2022/08/01 08:45:34;;;;;;;1.73;1.53;;;23.90;77.90;;;;;;5067991;28;20629;-82
2022/08/01 08:48:01;;;;;;;1.27;1.17;;;23.90;77.20;;;;;;5070961;28;21203;-82
2022/08/01 08:50:29;;;;;;;1.30;1.07;;;23.90;76.90;;;;;;5069526;28;20634;-82
2022/08/01 08:52:56;;;;;;;2.10;1.87;;;24.00;77.60;;;;;;5080483;28;20617;-82
2022/08/01 08:55:24;;;;;;;2.70;0.93;;;24.10;78.60;;;;;;5080954;28;20636;-82
2022/08/01 08:57:54;;;;;;;2.43;1.73;;;24.20;76.40;;;;;;5076982;28;20613;-84
2022/08/01 09:00:22;;;;;;;1.80;1.70;;;24.30;77.90;;;;;;5073556;28;20720;-84
2022/08/01 09:02:55;;;;;;;2.40;1.60;;;24.40;76.20;;;;;;5075366;28;21500;-85
2022/08/01 09:05:26;;;;;;;1.80;1.60;;;24.40;75.00;;;;;;5074142;28;20649;-83
2022/08/01 09:07:53;;;;;;;2.10;1.90;;;24.60;75.50;;;;;;5078655;28;21163;-82
2022/08/01 09:10:20;;;;;;;2.30;2.10;;;24.50;73.80;;;;;;5066065;28;20646;-83
2022/08/01 09:13:06;;;;;;;2.37;2.17;;;24.50;73.50;;;;;;5069104;28;20625;-83
2022/08/01 09:15:46;;;;;;;2.53;1.90;;;24.90;73.30;;;;;;5072279;28;20644;-85
2022/08/01 09:18:33;;;;;;;1.80;1.67;;;25.00;74.20;;;;;;5075762;28;20625;-84
2022/08/01 09:21:11;;;;;;;1.87;1.77;;;24.80;73.10;;;;;;5079220;28;20640;-83
2022/08/01 09:23:42;;;;;;;2.53;2.33;;;24.80;73.80;;;;;;5077325;28;20621;-84
2022/08/01 09:26:09;;;;;;;2.57;2.33;;;24.80;74.40;;;;;;5084697;28;20625;-83
2022/08/01 09:28:36;;;;;;;1.97;1.87;;;24.70;74.80;;;;;;5086435;28;20621;-83
2022/08/01 09:31:08;;;;;;;2.00;1.90;;;24.80;76.60;;;;;;5081456;28;20625;-83
2022/08/01 09:33:50;;;;;;;2.50;2.30;;;24.80;74.80;;;;;;5076552;28;20633;-82
2022/08/01 09:36:18;;;;;;;2.00;1.57;;;24.90;73.40;;;;;;5075219;28;20657;-81
2022/08/01 09:38:45;;;;;;;2.70;2.50;;;25.00;74.90;;;;;;5073266;28;21602;-80
2022/08/01 09:41:12;;;;;;;2.43;2.23;;;25.00;74.50;;;;;;5073823;28;20722;-80
2022/08/01 09:43:39;;;;;;;2.20;1.90;;;25.20;73.70;;;;;;5076029;28;20621;-81
2022/08/01 09:46:11;;;;;;;2.53;2.10;;;25.50;73.50;;;;;;5071064;28;20742;-80
2022/08/01 09:48:39;;;;;;;3.93;3.63;;;25.60;71.20;;;;;;5075806;28;20644;-82
2022/08/01 09:51:07;;;;;;;4.27;3.87;;;25.40;70.00;;;;;;5084783;28;20628;-83
2022/08/01 09:53:42;;;;;;;3.00;2.80;;;25.40;73.10;;;;;;5066350;28;21163;-82
2022/08/01 09:56:11;;;;;;;3.40;2.93;;;25.40;72.90;;;;;;5073729;28;20660;-82
2022/08/01 09:58:50;;;;;;;2.83;2.30;;;25.40;73.70;;;;;;5071877;28;20624;-82
2022/08/01 10:01:17;;;;;;;3.30;3.07;;;25.30;72.60;;;;;;5079614;28;20629;-83
2022/08/01 10:03:44;;;;;;;3.00;2.70;;;25.20;73.60;;;;;;5082583;28;20636;-83
2022/08/01 10:06:22;;;;;;;2.97;2.73;;;25.50;75.20;;;;;;5080140;28;20667;-83
2022/08/01 10:08:50;;;;;;;4.13;3.10;;;25.70;74.00;;;;;;5070854;28;20624;-82
2022/08/01 10:11:18;;;;;;;3.60;3.30;;;25.40;71.40;;;;;;5070038;28;20737;-82
2022/08/01 10:13:45;;;;;;;3.83;3.43;;;25.20;72.50;;;;;;5069503;28;20728;-83
2022/08/01 10:16:14;;;;;;;4.57;3.27;;;25.30;74.30;;;;;;5080911;28;20759;-83
2022/08/01 10:18:42;;;;;;;3.37;3.07;;;25.50;73.30;;;;;;5090598;28;20719;-83
2022/08/01 10:21:10;;;;;;;2.80;2.60;;;25.70;72.40;;;;;;5090854;28;20627;-83
2022/08/01 10:23:39;;;;;;;3.47;3.10;;;26.20;73.70;;;;;;5090303;28;20631;-83
2022/08/01 10:26:07;;;;;;;3.20;2.90;;;26.60;70.50;;;;;;5090340;28;21190;-84
2022/08/01 10:28:37;;;;;;;3.23;2.93;;;26.70;69.20;;;;;;5085258;28;20626;-83
2022/08/01 10:31:04;;;;;;;3.20;2.90;;;26.70;68.00;;;;;;5070970;28;20625;-83
2022/08/01 10:33:31;;;;;;;3.60;3.00;;;26.10;68.60;;;;;;5077132;28;21074;-83
2022/08/01 10:35:59;;;;;;;2.37;2.17;;;26.10;69.80;;;;;;5070832;28;20629;-83
2022/08/01 10:38:28;;;;;;;2.47;2.30;;;26.10;71.60;;;;;;5074270;28;20749;-83
2022/08/01 10:40:58;;;;;;;2.47;2.27;;;26.50;69.60;;;;;;5074138;28;20724;-82
2022/08/01 10:43:24;;;;;;;2.87;2.37;;;26.90;71.30;;;;;;5070880;28;20648;-84
2022/08/01 10:45:52;;;;;;;2.93;2.70;;;27.30;69.00;;;;;;5074921;28;20956;-83
2022/08/01 10:48:23;;;;;;;2.40;2.20;;;27.30;66.20;;;;;;5090842;28;20648;-83
2022/08/01 10:50:53;;;;;;;2.50;2.30;;;27.00;67.20;;;;;;5090611;28;20727;-82
2022/08/01 10:53:21;;;;;;;2.80;2.60;;;26.50;67.10;;;;;;5085748;28;20612;-83
2022/08/01 10:55:51;;;;;;;2.50;2.30;;;26.20;69.90;;;;;;5082433;28;20748;-83
2022/08/01 10:58:23;;;;;;;3.20;2.60;;;26.30;68.90;;;;;;5072185;28;21028;-83
2022/08/01 11:01:21;;;;;;;1.70;1.60;;;26.10;68.40;;;;;;5070339;28;20622;-83
2022/08/01 11:04:03;;;;;;;2.50;2.30;;;26.40;69.30;;;;;;5070284;28;20686;-83
2022/08/01 11:06:41;;;;;;;1.97;1.87;;;26.60;66.80;;;;;;5088800;28;21021;-82
2022/08/01 11:09:24;;;;;;;2.10;2.00;;;26.00;66.90;;;;;;5069950;28;21167;-83
2022/08/01 11:12:08;;;;;;;2.20;2.00;;;26.20;69.50;;;;;;5068103;28;21522;-83
2022/08/01 11:15:25;;;;;;;2.37;2.20;;;26.70;70.00;;;;;;5068924;28;20626;-83
2022/08/01 11:17:53;;;;;;;3.37;2.53;;;27.60;67.30;;;;;;5057701;28;20662;-83
2022/08/01 11:20:21;;;;;;;2.70;2.50;;;28.30;65.80;;;;;;5068704;28;20679;-84
2022/08/01 11:23:27;;;;;;;3.10;2.13;;;28.80;62.20;;;;;;5069617;28;20710;-83
2022/08/01 11:26:24;;;;;;;2.90;2.70;;;29.30;62.90;;;;;;5069290;28;20653;-83
2022/08/01 11:29:15;;;;;;;2.80;2.60;;;29.10;60.20;;;;;;5068670;28;20710;-83
2022/08/01 11:31:43;;;;;;;3.43;3.13;;;28.20;61.90;;;;;;5083794;28;21380;-83
2022/08/01 11:34:10;;;;;;;2.77;2.57;;;27.70;62.60;;;;;;5080169;28;20683;-83
2022/08/01 11:36:37;;;;;;;2.47;2.27;;;27.10;62.90;;;;;;5076754;28;20680;-83
2022/08/01 11:39:15;;;;;;;2.30;2.10;;;27.10;64.60;;;;;;5068887;28;20646;-83
2022/08/01 11:41:44;;;;;;;2.37;2.20;;;26.80;65.70;;;;;;5080092;28;20633;-83
2022/08/01 11:44:13;;;;;;;1.83;1.50;;;26.60;66.70;;;;;;5088272;28;20727;-83
2022/08/01 11:46:59;;;;;;;2.00;1.90;;;26.40;66.70;;;;;;5087407;28;20723;-83
2022/08/01 11:49:57;;;;;;;1.80;1.60;;;26.30;68.10;;;;;;5075313;28;20644;-82
2022/08/01 11:52:29;;;;;;;1.93;1.70;;;26.20;65.60;;;;;;5080046;28;20688;-83
2022/08/01 11:54:58;;;;;;;1.57;1.47;;;26.10;67.10;;;;;;5078634;28;20668;-82
2022/08/01 11:57:29;;;;;;;2.97;2.13;;;26.10;68.10;;;;;;5080987;28;20780;-83
2022/08/01 11:59:57;;;;;;;2.67;2.47;;;26.20;68.80;;;;;;5078872;28;20620;-83
2022/08/01 12:02:27;;;;;;;1.93;1.73;;;26.20;70.90;;;;;;5081500;28;21194;-82
2022/08/01 12:04:56;;;;;;;1.53;1.43;;;26.30;70.10;;;;;;5082402;28;20728;-83
2022/08/01 12:07:24;;;;;;;2.30;2.10;;;26.20;68.00;;;;;;5075783;28;20649;-82
2022/08/01 12:10:00;;;;;;;2.30;2.10;;;26.30;67.60;;;;;;5081133;28;20635;-83
2022/08/01 12:12:28;;;;;;;1.80;1.70;;;26.40;67.10;;;;;;5075405;28;20661;-83
2022/08/01 12:14:56;;;;;;;2.10;1.90;;;26.40;67.40;;;;;;5076925;28;20732;-83
2022/08/01 12:17:35;;;;;;;1.70;1.60;;;27.40;66.90;;;;;;5077559;28;20641;-83
2022/08/01 12:20:04;;;;;;;1.93;1.80;;;27.60;62.70;;;;;;5077660;28;20693;-83
2022/08/01 12:22:31;;;;;;;1.80;1.70;;;27.50;61.70;;;;;;5076291;28;20613;-83
2022/08/01 12:25:07;;;;;;;2.60;2.17;;;27.40;64.50;;;;;;5072083;28;20625;-83
2022/08/01 12:27:34;;;;;;;1.53;1.43;;;27.30;64.80;;;;;;5071795;28;20625;-83
2022/08/01 12:30:06;;;;;;;1.40;1.30;;;27.10;65.70;;;;;;5079691;28;20733;-82
2022/08/01 12:32:37;;;;;;;1.47;1.37;;;26.90;66.90;;;;;;5083169;28;20633;-83
2022/08/01 12:35:06;;;;;;;1.93;1.57;;;26.60;69.70;;;;;;5072152;28;20728;-83
2022/08/01 12:37:36;;;;;;;1.60;1.50;;;26.50;69.80;;;;;;5075851;28;20771;-83
2022/08/01 12:40:10;;;;;;;1.70;1.60;;;26.50;70.40;;;;;;5076765;28;21217;-83
2022/08/01 12:42:39;;;;;;;1.83;1.73;;;26.50;69.30;;;;;;5086551;28;21504;-83
2022/08/01 12:45:08;;;;;;;2.00;1.80;;;27.30;70.30;;;;;;5076626;28;21053;-83
2022/08/01 12:47:37;;;;;;;1.43;1.27;;;27.90;65.20;;;;;;5068664;28;20645;-83
2022/08/01 12:50:06;;;;;;;2.40;1.60;;;28.40;64.30;;;;;;5079473;28;20632;-83
2022/08/01 12:52:33;;;;;;;2.17;2.07;;;28.40;62.70;;;;;;5072650;28;20621;-83
2022/08/01 12:55:09;;;;;;;1.93;1.83;;;28.20;61.90;;;;;;5073775;28;20689;-83
2022/08/01 12:57:38;;;;;;;2.50;2.00;;;27.30;60.30;;;;;;5077869;28;20664;-84
2022/08/01 13:00:12;;;;;;;2.07;1.90;;;27.20;63.60;;;;;;5078744;28;20641;-83
2022/08/01 13:02:42;;;;;;;1.43;1.30;;;27.30;63.00;;;;;;5076179;28;20725;-83
2022/08/01 13:05:10;;;;;;;1.67;1.57;;;28.00;62.20;;;;;;5076779;28;20627;-83
2022/08/01 13:07:43;;;;;;;1.67;1.57;;;29.50;61.40;;;;;;5077324;28;20652;-85